Time;durP1;ratioP1;P1;durP2;ratioP2;P2;SDS_P1;SDS_P2;PMS_P1;PMS_P2;Temp;Humidity;BMP_temperature;BMP_pressure;BME280_temperature;BME280_humidity;BME280_pressure;Samples;Min_cycle;Max_cycle;Signal;HPM_P1;HPM_P2
2023/01/18 00:03:16;;;;;;;23.63;19.55;;;;;;;-1.27;100.00;98939.22;10154807;28;20052;-71
2023/01/18 00:08:17;;;;;;;28.23;21.40;;;;;;;-1.23;100.00;98931.41;10156986;28;20047;-71
2023/01/18 00:13:14;;;;;;;25.47;20.37;;;;;;;-1.21;100.00;98931.91;10126355;28;20050;-71
2023/01/18 00:18:11;;;;;;;25.60;19.33;;;;;;;-1.17;100.00;98932.94;10142339;28;20070;-71
2023/01/18 00:23:07;;;;;;;24.13;18.77;;;;;;;-1.13;100.00;98939.34;10115372;28;20146;-71
2023/01/18 00:28:04;;;;;;;24.02;18.00;;;;;;;-1.10;100.00;98938.78;10192831;28;20419;-71
2023/01/18 00:33:00;;;;;;;26.90;18.95;;;;;;;-1.16;100.00;98944.47;10151326;28;20059;-71
2023/01/18 00:37:57;;;;;;;32.17;20.77;;;;;;;-1.24;100.00;98943.22;10192038;28;20077;-71
2023/01/18 00:48:08;;;;;;;28.05;20.38;;;;;;;-1.30;100.00;98949.69;10112810;28;20070;-71
2023/01/18 00:53:05;;;;;;;31.00;19.88;;;;;;;-1.22;100.00;98950.97;10127671;28;20536;-71
2023/01/18 00:58:01;;;;;;;26.80;19.85;;;;;;;-1.30;100.00;98949.69;10135242;28;20449;-71
2023/01/18 01:02:58;;;;;;;26.25;20.65;;;;;;;-1.31;100.00;98956.16;10121167;28;20051;-71
2023/01/18 01:07:55;;;;;;;31.77;20.13;;;;;;;-1.35;100.00;98963.16;10124200;28;20057;-71
2023/01/18 01:28:49;;;;;;;30.60;22.92;;;;;;;-1.48;100.00;98976.13;10198798;28;20052;-71
2023/01/18 01:33:49;;;;;;;30.65;24.33;;;;;;;-1.50;100.00;98972.94;10152899;28;20456;-71
2023/01/18 01:38:45;;;;;;;32.28;22.83;;;;;;;-1.49;100.00;98981.78;10198369;28;20042;-71
2023/01/18 01:43:48;;;;;;;34.85;21.65;;;;;;;-1.49;100.00;98985.25;10132590;28;20057;-71
2023/01/18 01:48:46;;;;;;;32.33;22.83;;;;;;;-1.42;100.00;98986.81;10197910;28;20587;-71
2023/01/18 01:53:45;;;;;;;32.47;23.38;;;;;;;-1.37;100.00;98992.13;10129424;28;20559;-71
2023/01/18 01:58:42;;;;;;;27.98;19.90;;;;;;;-1.36;100.00;98988.38;10158546;28;20477;-71
2023/01/18 02:03:39;;;;;;;36.92;23.05;;;;;;;-1.34;100.00;98991.59;10129086;28;20061;-71
2023/01/18 02:08:36;;;;;;;30.90;22.08;;;;;;;-1.44;100.00;98980.94;10157051;28;20408;-71
2023/01/18 02:13:32;;;;;;;30.67;22.52;;;;;;;-1.41;100.00;98985.75;10159493;28;20073;-71
2023/01/18 02:18:51;;;;;;;29.65;21.02;;;;;;;-1.38;100.00;98985.97;10196118;28;20165;-71
2023/01/18 02:24:31;;;;;;;35.60;20.88;;;;;;;-1.44;100.00;98991.66;10155102;28;20500;-71
2023/01/18 02:29:56;;;;;;;32.00;21.60;;;;;;;-1.41;100.00;98991.13;10195810;28;20580;-71
2023/01/18 02:35:06;;;;;;;31.55;22.48;;;;;;;-1.46;100.00;98988.44;10145545;28;20666;-71
2023/01/18 02:40:32;;;;;;;24.17;19.25;;;;;;;-1.40;100.00;98995.38;10172863;28;20081;-71
2023/01/18 02:50:50;;;;;;;25.48;17.88;;;;;;;-1.35;100.00;98984.59;10116807;28;20130;-71
2023/01/18 02:56:01;;;;;;;23.15;17.48;;;;;;;-1.38;100.00;98993.22;10116569;28;20082;-71
2023/01/18 03:01:06;;;;;;;24.27;18.70;;;;;;;-1.50;100.00;99005.09;10115736;28;20188;-71
2023/01/18 03:06:06;;;;;;;24.13;19.27;;;;;;;-1.64;100.00;99008.72;10164144;28;20065;-71
2023/01/18 03:11:15;;;;;;;28.45;21.65;;;;;;;-1.65;100.00;99007.09;10188098;28;20050;-71
2023/01/18 03:16:21;;;;;;;34.95;20.77;;;;;;;-1.60;100.00;99013.22;10180017;28;20130;-71
2023/01/18 03:21:18;;;;;;;25.30;20.52;;;;;;;-1.60;100.00;99015.91;10166174;28;20177;-71
2023/01/18 03:26:19;;;;;;;28.13;20.70;;;;;;;-1.55;100.00;99012.41;10180303;28;20080;-71
2023/01/18 03:36:39;;;;;;;23.13;18.90;;;;;;;-1.44;100.00;99018.47;10161588;28;20057;-71
2023/01/18 03:41:41;;;;;;;24.65;18.02;;;;;;;-1.50;100.00;99021.19;10114961;28;20143;-71
2023/01/18 03:46:39;;;;;;;23.25;15.52;;;;;;;-1.24;100.00;99010.25;10148686;28;20233;-71
2023/01/18 03:51:58;;;;;;;21.55;14.98;;;;;;;-1.25;100.00;99006.00;10153756;28;20074;-71
2023/01/18 03:57:08;;;;;;;18.27;13.95;;;;;;;-1.13;100.00;99014.44;10129671;28;20051;-71
2023/01/18 04:02:06;;;;;;;19.63;14.55;;;;;;;-1.14;100.00;99002.13;10114234;28;20047;-71
2023/01/18 04:07:03;;;;;;;19.63;13.57;;;;;;;-1.08;100.00;99003.66;10178642;28;20064;-71
2023/01/18 04:11:59;;;;;;;22.10;12.48;;;;;;;-1.03;100.00;99007.41;10166237;28;20050;-71
2023/01/18 04:16:56;;;;;;;23.00;13.15;;;;;;;-0.91;100.00;99015.84;10176159;28;20492;-71
2023/01/18 04:21:52;;;;;;;23.02;13.10;;;;;;;-1.01;100.00;99018.66;10153553;28;20053;-71
2023/01/18 04:26:49;;;;;;;19.75;12.88;;;;;;;-1.04;100.00;99021.88;10173645;28;20128;-70
2023/01/18 04:31:46;;;;;;;18.80;12.77;;;;;;;-1.10;100.00;99029.97;10119973;28;20500;-71
2023/01/18 04:36:42;;;;;;;22.13;12.45;;;;;;;-1.13;100.00;99035.13;10159816;28;20061;-71
2023/01/18 04:41:38;;;;;;;19.33;13.95;;;;;;;-1.15;100.00;99043.44;10160860;28;20046;-71
2023/01/18 04:46:37;;;;;;;17.83;14.50;;;;;;;-1.36;100.00;99047.38;10138740;28;20517;-71
2023/01/18 04:51:34;;;;;;;20.73;16.80;;;;;;;-1.52;100.00;99042.09;10120867;28;20117;-71
2023/01/18 04:56:30;;;;;;;19.33;17.17;;;;;;;-1.63;100.00;99053.97;10158782;28;20043;-71
2023/01/18 05:01:28;;;;;;;21.02;16.60;;;;;;;-1.72;100.00;99061.00;10150711;28;20078;-71
2023/01/18 05:06:24;;;;;;;24.25;18.33;;;;;;;-1.71;100.00;99074.13;10174062;28;20052;-71
2023/01/18 05:11:22;;;;;;;23.85;18.75;;;;;;;-1.65;100.00;99071.41;10144843;28;20042;-71
2023/01/18 05:16:21;;;;;;;23.25;19.05;;;;;;;-1.61;100.00;99078.63;10172826;28;20046;-71
2023/01/18 05:21:18;;;;;;;23.30;18.63;;;;;;;-1.75;100.00;99083.00;10129119;28;20555;-71
2023/01/18 05:26:19;;;;;;;24.88;18.33;;;;;;;-1.81;100.00;99089.44;10159002;28;20081;-71
2023/01/18 05:31:19;;;;;;;24.07;20.37;;;;;;;-1.95;100.00;99095.41;10159007;28;20089;-71
2023/01/18 05:36:16;;;;;;;25.45;21.02;;;;;;;-2.04;100.00;99107.78;10157466;28;20142;-71
2023/01/18 05:41:13;;;;;;;26.08;22.75;;;;;;;-2.06;100.00;99112.59;10119051;28;20130;-71
2023/01/18 05:46:09;;;;;;;28.35;22.27;;;;;;;-2.16;100.00;99115.28;10143978;28;20082;-71
2023/01/18 05:51:10;;;;;;;25.30;21.95;;;;;;;-2.18;100.00;99122.81;10148842;28;20071;-71
2023/01/18 05:56:07;;;;;;;25.50;22.88;;;;;;;-2.18;100.00;99138.88;10146243;28;20090;-71
2023/01/18 06:01:04;;;;;;;30.65;24.92;;;;;;;-2.10;100.00;99156.28;10118490;28;20043;-71
2023/01/18 06:06:00;;;;;;;33.88;27.42;;;;;;;-2.14;100.00;99158.69;10144101;28;20129;-71
2023/01/18 06:10:58;;;;;;;29.98;25.10;;;;;;;-2.12;100.00;99170.72;10153869;28;20520;-71
2023/01/18 06:15:57;;;;;;;33.13;25.65;;;;;;;-2.17;100.00;99177.97;10164568;28;20065;-71
2023/01/18 06:20:54;;;;;;;39.35;28.00;;;;;;;-2.19;100.00;99180.13;10185271;28;20047;-71
2023/01/18 06:25:51;;;;;;;35.38;26.60;;;;;;;-2.24;100.00;99178.25;10179077;28;20050;-71
2023/01/18 06:30:50;;;;;;;34.55;26.73;;;;;;;-2.29;100.00;99185.50;10163266;28;20104;-71
2023/01/18 06:35:46;;;;;;;35.97;26.50;;;;;;;-2.31;100.00;99182.28;10160826;28;20056;-71
2023/01/18 06:40:43;;;;;;;30.45;27.08;;;;;;;-2.31;100.00;99203.72;10160048;28;20117;-71
2023/01/18 06:45:40;;;;;;;38.22;28.67;;;;;;;-2.29;100.00;99202.38;10155001;28;20568;-71
2023/01/18 06:50:36;;;;;;;33.45;29.10;;;;;;;-2.29;100.00;99201.56;10148571;28;20068;-71
2023/01/18 06:55:33;;;;;;;36.60;28.60;;;;;;;-2.29;100.00;99212.28;10140952;28;20548;-71
2023/01/18 07:00:30;;;;;;;38.22;30.40;;;;;;;-2.30;100.00;99216.00;10116843;28;20452;-71
2023/01/18 07:05:26;;;;;;;31.13;27.80;;;;;;;-2.35;100.00;99225.63;10154199;28;20045;-71
2023/01/18 07:10:22;;;;;;;35.55;28.98;;;;;;;-2.37;100.00;99230.50;10195393;28;20143;-71
2023/01/18 07:15:19;;;;;;;33.60;27.80;;;;;;;-2.37;100.00;99233.16;10175915;28;20473;-71
2023/01/18 07:20:18;;;;;;;37.42;28.40;;;;;;;-2.40;100.00;99244.38;10194962;28;20054;-71
2023/01/18 07:25:17;;;;;;;37.08;29.02;;;;;;;-2.37;100.00;99249.22;10167050;28;20081;-71
2023/01/18 07:30:14;;;;;;;41.45;28.33;;;;;;;-2.51;100.00;99263.38;10194071;28;20045;-71
2023/01/18 07:35:10;;;;;;;39.15;29.27;;;;;;;-2.46;100.00;99255.34;10161607;28;20132;-71
2023/01/18 07:40:09;;;;;;;34.20;28.00;;;;;;;-2.43;100.00;99255.63;10173786;28;20129;-71
2023/01/18 07:45:07;;;;;;;36.38;28.58;;;;;;;-2.41;100.00;99264.22;10147903;28;20050;-71
2023/01/18 07:50:05;;;;;;;33.80;28.10;;;;;;;-2.39;100.00;99278.13;10136728;28;20444;-71
2023/01/18 07:55:01;;;;;;;33.40;28.75;;;;;;;-2.37;100.00;99270.66;10146276;28;20543;-71
2023/01/18 07:59:57;;;;;;;34.20;27.35;;;;;;;-2.37;100.00;99291.22;10116536;28;20042;-71
2023/01/18 08:04:54;;;;;;;41.05;28.55;;;;;;;-2.31;100.00;99290.19;10133331;28;20086;-70
2023/01/18 08:09:50;;;;;;;34.70;28.38;;;;;;;-2.28;100.00;99299.53;10113315;28;20046;-71
2023/01/18 08:14:47;;;;;;;37.40;28.60;;;;;;;-2.26;100.00;99303.56;10141745;28;20066;-71
2023/01/18 08:19:43;;;;;;;35.50;30.50;;;;;;;-2.23;100.00;99310.25;10193150;28;20069;-71
2023/01/18 08:24:39;;;;;;;36.95;27.90;;;;;;;-2.20;100.00;99312.41;10159348;28;20046;-71
2023/01/18 08:29:36;;;;;;;34.42;28.45;;;;;;;-2.18;100.00;99326.31;10192825;28;20054;-71
2023/01/18 08:34:32;;;;;;;39.45;29.58;;;;;;;-2.17;100.00;99328.72;10137893;28;20048;-71
2023/01/18 08:39:29;;;;;;;41.28;27.05;;;;;;;-2.22;100.00;99335.97;10168851;28;20051;-70
2023/01/18 08:44:25;;;;;;;31.80;26.75;;;;;;;-2.21;100.00;99340.25;10135504;28;20100;-71
2023/01/18 08:49:22;;;;;;;31.42;27.02;;;;;;;-2.18;100.00;99347.72;10135365;28;20045;-70
2023/01/18 08:54:18;;;;;;;37.63;26.33;;;;;;;-2.12;100.00;99362.75;10133451;28;20125;-70
2023/01/18 08:59:15;;;;;;;35.72;27.23;;;;;;;-2.09;100.00;99359.53;10119386;28;20094;-71
2023/01/18 09:04:12;;;;;;;47.58;27.65;;;;;;;-2.11;100.00;99364.38;10115965;28;20057;-70
2023/01/18 09:09:10;;;;;;;33.65;25.55;;;;;;;-1.99;100.00;99378.28;10112718;28;20662;-70
2023/01/18 09:14:07;;;;;;;35.38;23.83;;;;;;;-1.88;100.00;99389.81;10128953;28;20092;-70
2023/01/18 09:19:05;;;;;;;31.38;24.75;;;;;;;-1.78;100.00;99394.38;10192647;28;20145;-70
2023/01/18 09:24:01;;;;;;;30.73;24.38;;;;;;;-1.76;100.00;99397.59;10155157;28;20050;-70
2023/01/18 09:28:58;;;;;;;35.80;25.10;;;;;;;-1.75;100.00;99399.19;10198801;28;20057;-70
2023/01/18 09:33:56;;;;;;;31.20;23.58;;;;;;;-1.68;100.00;99407.75;10149591;28;20045;-70
2023/01/18 09:39:12;;;;;;;30.23;24.27;;;;;;;-1.61;100.00;99416.31;10190027;28;20038;-70
2023/01/18 09:44:32;;;;;;;37.42;26.17;;;;;;;-1.46;100.00;99422.75;10136814;28;20619;-70
2023/01/18 09:49:39;;;;;;;30.95;22.58;;;;;;;-1.32;100.00;99418.47;10173838;28;20047;-70
2023/01/18 09:55:17;;;;;;;30.58;21.77;;;;;;;-1.21;100.00;99420.03;10143537;28;20512;-71
2023/01/18 10:00:32;;;;;;;29.15;21.35;;;;;;;-0.97;100.00;99424.81;10161852;28;20093;-70
2023/01/18 10:05:34;;;;;;;27.60;20.42;;;;;;;-0.80;100.00;99424.47;10157253;28;20541;-70
2023/01/18 10:10:42;;;;;;;30.05;21.08;;;;;;;-0.59;100.00;99425.19;10121827;28;20046;-70
2023/01/18 10:15:40;;;;;;;30.30;20.85;;;;;;;-0.40;100.00;99418.13;10127402;28;20073;-71
2023/01/18 10:20:43;;;;;;;32.92;20.77;;;;;;;-0.17;100.00;99426.59;10118399;28;20069;-70
2023/01/18 10:26:01;;;;;;;24.58;17.80;;;;;;;-0.08;100.00;99424.94;10136532;28;20042;-70
2023/01/18 10:31:32;;;;;;;29.40;18.63;;;;;;;0.11;100.00;99412.41;10156538;28;20054;-71
2023/01/18 10:36:37;;;;;;;28.20;17.75;;;;;;;0.30;100.00;99409.06;10159251;28;20423;-70
2023/01/18 10:41:39;;;;;;;24.80;17.88;;;;;;;0.55;100.00;99411.50;10156409;28;20052;-71
2023/01/18 10:46:35;;;;;;;25.45;17.35;;;;;;;0.72;100.00;99404.91;10148375;28;20074;-70
2023/01/18 10:51:34;;;;;;;24.58;16.88;;;;;;;0.72;100.00;99423.72;10148406;28;20066;-70
2023/01/18 10:56:32;;;;;;;27.17;16.25;;;;;;;0.81;100.00;99414.78;10149649;28;20038;-70
2023/01/18 11:01:33;;;;;;;23.40;16.42;;;;;;;1.01;100.00;99419.13;10135015;28;20061;-71
2023/01/18 11:06:43;;;;;;;24.08;15.75;;;;;;;0.97;100.00;99418.09;10171539;28;20129;-70
2023/01/18 11:17:10;;;;;;;22.25;15.35;;;;;;;1.35;100.00;99423.59;10186317;28;20046;-70
2023/01/18 11:22:12;;;;;;;23.27;14.27;;;;;;;1.34;100.00;99416.59;10115959;28;20050;-71
2023/01/18 11:27:21;;;;;;;28.23;18.30;;;;;;;1.64;100.00;99420.00;10175331;28;20088;-71
2023/01/18 11:32:22;;;;;;;23.58;14.10;;;;;;;1.70;100.00;99418.03;10115304;28;20051;-70
2023/01/18 11:37:36;;;;;;;23.17;15.40;;;;;;;1.57;100.00;99414.16;10174380;28;20046;-71
2023/01/18 11:42:35;;;;;;;24.70;15.73;;;;;;;1.55;100.00;99416.34;10114438;28;20560;-71
2023/01/18 11:47:55;;;;;;;23.40;15.63;;;;;;;1.33;100.00;99414.22;10167630;28;20145;-71
2023/01/18 11:53:14;;;;;;;25.55;16.30;;;;;;;1.56;100.00;99412.56;10114212;28;20057;-70
2023/01/18 11:58:23;;;;;;;25.25;15.55;;;;;;;1.61;100.00;99415.19;10114175;28;20070;-71
2023/01/18 12:03:48;;;;;;;23.30;15.40;;;;;;;1.57;100.00;99417.66;10118734;28;20043;-71
2023/01/18 12:08:51;;;;;;;19.88;14.52;;;;;;;1.59;100.00;99417.38;10137824;28;20053;-70
2023/01/18 12:14:12;;;;;;;;;;;;;;;1.60;100.00;99419.78;10153123;28;20050;-71
2023/01/18 12:19:20;;;;;;;25.15;14.70;;;;;;;1.80;100.00;99417.91;10187744;28;19928;-72
2023/01/18 12:24:34;;;;;;;22.77;15.43;;;;;;;2.12;100.00;99425.25;10169341;28;20054;-71
2023/01/18 12:29:55;;;;;;;27.55;16.15;;;;;;;3.30;100.00;99421.28;10192546;28;20389;-70
2023/01/18 12:35:01;;;;;;;17.98;13.68;;;;;;;4.89;100.00;99414.09;10139392;28;20074;-71
2023/01/18 12:40:24;;;;;;;21.00;15.02;;;;;;;5.49;100.00;99413.50;10145201;28;20539;-70
2023/01/18 12:45:47;;;;;;;19.55;14.13;;;;;;;5.41;100.00;99414.28;10152645;28;20076;-71
2023/01/18 12:50:48;;;;;;;19.13;13.00;;;;;;;5.36;100.00;99411.72;10136751;28;20179;-71
2023/01/18 12:55:49;;;;;;;20.15;12.80;;;;;;;5.24;100.00;99417.72;10153674;28;20050;-71
2023/01/18 13:00:52;;;;;;;15.67;10.77;;;;;;;4.85;100.00;99425.56;10140364;28;20082;-71
2023/01/18 13:05:58;;;;;;;16.42;11.30;;;;;;;4.20;100.00;99421.50;10165179;28;20046;-71
2023/01/18 13:11:01;;;;;;;12.32;9.98;;;;;;;4.49;100.00;99422.16;10129364;28;20082;-70
2023/01/18 13:16:15;;;;;;;15.02;10.63;;;;;;;4.93;100.00;99415.06;10146467;28;20051;-71
2023/01/18 13:21:40;;;;;;;15.50;10.85;;;;;;;4.96;100.00;99419.84;10120209;28;20063;-70
2023/01/18 13:26:37;;;;;;;14.27;10.98;;;;;;;4.68;100.00;99430.06;10161446;28;20046;-70
2023/01/18 13:31:33;;;;;;;11.15;9.25;;;;;;;4.21;100.00;99439.31;10159115;28;20141;-71
2023/01/18 13:36:43;;;;;;;19.08;10.52;;;;;;;4.12;100.00;99441.13;10152466;28;20051;-70
2023/01/18 13:42:02;;;;;;;13.95;10.20;;;;;;;3.93;100.00;99438.59;10155891;28;20685;-71
2023/01/18 13:46:59;;;;;;;16.38;10.27;;;;;;;4.05;100.00;99442.69;10181963;28;20425;-70
2023/01/18 13:51:57;;;;;;;11.68;9.48;;;;;;;4.24;100.00;99446.00;10181239;28;20129;-71
2023/01/18 13:57:00;;;;;;;12.20;9.52;;;;;;;4.11;100.00;99444.16;10169927;28;20131;-70
2023/01/18 14:02:12;;;;;;;12.02;9.60;;;;;;;3.58;100.00;99459.88;10149453;28;20074;-70
2023/01/18 14:07:21;;;;;;;13.02;10.52;;;;;;;3.47;100.00;99458.50;10183381;28;20069;-70
2023/01/18 14:12:47;;;;;;;14.50;9.63;;;;;;;3.86;100.00;99470.66;10178565;28;20133;-70
2023/01/18 14:17:43;;;;;;;16.83;10.25;;;;;;;3.58;100.00;99473.41;10208533;28;20096;-71
2023/01/18 14:23:04;;;;;;;15.07;9.75;;;;;;;3.92;100.00;99474.03;10166177;28;20093;-71
2023/01/18 14:28:11;;;;;;;15.27;9.98;;;;;;;3.94;100.00;99478.03;10117230;28;20057;-71
2023/01/18 14:33:10;;;;;;;13.23;10.38;;;;;;;3.26;100.00;99489.72;10118231;28;20328;-70
2023/01/18 14:38:13;;;;;;;12.15;9.68;;;;;;;2.89;100.00;99488.75;10196652;28;20046;-71
2023/01/18 14:43:22;;;;;;;19.15;10.00;;;;;;;2.62;100.00;99498.38;10174044;28;20042;-71
2023/01/18 14:48:22;;;;;;;16.42;9.48;;;;;;;2.43;100.00;99494.91;10156451;28;20431;-71
2023/01/18 14:53:25;;;;;;;14.55;9.95;;;;;;;2.25;100.00;99501.91;10124051;28;20047;-71
2023/01/18 14:58:22;;;;;;;15.32;10.50;;;;;;;2.10;100.00;99508.31;10189223;28;20072;-71
2023/01/18 15:03:27;;;;;;;12.75;9.93;;;;;;;1.97;100.00;99525.22;10155324;28;20052;-70
2023/01/18 15:08:26;;;;;;;13.20;9.70;;;;;;;1.85;100.00;99518.34;10149975;28;20113;-70
2023/01/18 15:13:25;;;;;;;17.05;11.18;;;;;;;1.71;100.00;99528.22;10132433;28;20078;-71
2023/01/18 15:18:24;;;;;;;16.48;10.40;;;;;;;1.58;100.00;99534.28;10153861;28;20129;-71
2023/01/18 15:23:21;;;;;;;15.98;11.45;;;;;;;1.55;100.00;99534.88;10154287;28;20050;-71
2023/01/18 15:28:20;;;;;;;17.58;11.13;;;;;;;1.46;100.00;99546.28;10119051;28;20097;-71
2023/01/18 15:33:22;;;;;;;22.65;11.82;;;;;;;1.34;100.00;99551.25;10133169;28;20042;-70
2023/01/18 15:38:19;;;;;;;18.40;12.43;;;;;;;1.17;100.00;99572.44;10154115;28;20057;-70
2023/01/18 15:43:32;;;;;;;17.17;12.13;;;;;;;1.07;100.00;99564.44;10137929;28;20052;-70
2023/01/18 15:48:36;;;;;;;20.38;13.63;;;;;;;0.92;100.00;99568.88;10154013;28;20073;-70
2023/01/18 15:53:44;;;;;;;17.33;13.55;;;;;;;0.82;100.00;99588.59;10157882;28;20092;-70
2023/01/18 15:58:42;;;;;;;23.02;15.00;;;;;;;0.73;100.00;99584.88;10159993;28;20046;-70
2023/01/18 16:03:44;;;;;;;24.65;16.15;;;;;;;0.65;100.00;99588.19;10158295;28;20507;-70
2023/01/18 16:09:07;;;;;;;20.23;14.35;;;;;;;0.55;100.00;99594.41;10160157;28;20054;-70
2023/01/18 16:14:21;;;;;;;18.98;15.98;;;;;;;0.46;100.00;99601.47;10139370;28;20057;-72
2023/01/18 16:19:28;;;;;;;22.48;16.52;;;;;;;0.38;100.00;99608.25;10124118;28;20050;-72
2023/01/18 16:24:28;;;;;;;20.08;16.52;;;;;;;0.35;100.00;99610.69;10134864;28;20504;-72
2023/01/18 16:29:25;;;;;;;18.85;16.88;;;;;;;0.22;100.00;99600.53;10124400;28;20101;-72
2023/01/18 16:34:25;;;;;;;20.73;17.70;;;;;;;0.14;100.00;99609.97;10147918;28;20077;-72
2023/01/18 16:39:23;;;;;;;22.50;18.42;;;;;;;0.11;100.00;99605.16;10161113;28;20595;-72
2023/01/18 16:44:20;;;;;;;20.58;17.75;;;;;;;0.03;100.00;99609.22;10149705;28;20109;-71
2023/01/18 16:49:17;;;;;;;20.58;17.23;;;;;;;0.02;100.00;99612.97;10160010;28;20050;-72
2023/01/18 16:54:13;;;;;;;25.77;17.33;;;;;;;-0.05;100.00;99615.16;10167562;28;20068;-72
2023/01/18 16:59:17;;;;;;;19.90;17.15;;;;;;;-0.09;100.00;99622.97;10197881;28;20504;-72
2023/01/18 17:04:14;;;;;;;21.10;17.67;;;;;;;-0.12;100.00;99628.06;10134113;28;20046;-72
2023/01/18 17:09:21;;;;;;;22.15;18.85;;;;;;;-0.17;100.00;99630.78;10138802;28;20149;-72
2023/01/18 17:14:19;;;;;;;22.73;18.10;;;;;;;-0.22;100.00;99634.28;10140175;28;20119;-72
2023/01/18 17:19:18;;;;;;;22.20;17.60;;;;;;;-0.25;100.00;99641.00;10155563;28;20047;-72
2023/01/18 17:24:16;;;;;;;22.77;18.35;;;;;;;-0.28;100.00;99652.31;10136545;28;20053;-72
2023/01/18 17:29:20;;;;;;;21.25;18.95;;;;;;;-0.32;100.00;99651.22;10119387;28;20420;-72
2023/01/18 17:34:20;;;;;;;26.92;18.98;;;;;;;-0.43;100.00;99649.63;10127695;28;20046;-71
2023/01/18 17:39:24;;;;;;;22.85;19.67;;;;;;;-0.44;100.00;99648.03;10118460;28;20073;-72
2023/01/18 17:44:41;;;;;;;21.55;19.25;;;;;;;-0.58;100.00;99652.31;10145409;28;20127;-72
2023/01/18 17:49:37;;;;;;;23.55;21.05;;;;;;;-0.60;100.00;99654.47;10197934;28;20522;-71
2023/01/18 17:54:33;;;;;;;25.10;20.05;;;;;;;-0.65;100.00;99664.16;10159073;28;20073;-71
2023/01/18 17:59:30;;;;;;;31.90;23.00;;;;;;;-0.75;100.00;99664.16;10179133;28;20043;-71
2023/01/18 18:04:26;;;;;;;25.77;21.85;;;;;;;-0.74;100.00;99687.25;10157221;28;20052;-72
2023/01/18 18:09:23;;;;;;;27.65;22.42;;;;;;;-0.72;100.00;99689.63;10141600;28;20130;-72
2023/01/18 18:14:20;;;;;;;27.95;22.08;;;;;;;-0.75;100.00;99685.63;10130794;28;20604;-72
2023/01/18 18:19:16;;;;;;;29.63;22.35;;;;;;;-0.83;100.00;99688.84;10157074;28;20129;-71
2023/01/18 18:24:13;;;;;;;27.20;23.80;;;;;;;-0.86;100.00;99687.50;10148722;28;20058;-72
2023/01/18 18:29:10;;;;;;;29.00;21.70;;;;;;;-0.82;100.00;99690.44;10116846;28;20049;-71
2023/01/18 18:34:07;;;;;;;25.45;22.65;;;;;;;-0.92;100.00;99695.81;10134105;28;20104;-72
2023/01/18 18:39:04;;;;;;;25.25;21.27;;;;;;;-0.88;100.00;99686.16;10195978;28;20061;-71
2023/01/18 18:44:01;;;;;;;23.15;20.33;;;;;;;-0.89;100.00;99687.22;10157691;28;20443;-71
2023/01/18 18:48:58;;;;;;;24.60;21.08;;;;;;;-0.94;100.00;99696.06;10149660;28;20138;-71
2023/01/18 18:53:55;;;;;;;21.83;19.48;;;;;;;-0.91;100.00;99710.84;10129873;28;20089;-71
2023/01/18 18:58:51;;;;;;;23.90;20.55;;;;;;;-1.00;100.00;99712.44;10178673;28;20055;-71
2023/01/18 19:03:50;;;;;;;25.40;19.65;;;;;;;-0.96;100.00;99713.50;10128027;28;20156;-71
2023/01/18 19:08:47;;;;;;;23.13;20.67;;;;;;;-1.03;100.00;99721.81;10163387;28;20134;-71
2023/01/18 19:13:44;;;;;;;24.67;20.50;;;;;;;-0.99;100.00;99722.09;10126707;28;20042;-72
2023/01/18 19:18:42;;;;;;;23.63;21.05;;;;;;;-1.01;100.00;99721.56;10128149;28;20532;-71
2023/01/18 19:23:38;;;;;;;24.50;21.73;;;;;;;-1.07;100.00;99721.56;10117885;28;20058;-71
2023/01/18 19:28:35;;;;;;;26.08;20.52;;;;;;;-1.06;100.00;99707.06;10115275;28;20060;-72
2023/01/18 19:33:32;;;;;;;23.77;21.25;;;;;;;-1.08;100.00;99709.19;10122793;28;20042;-72
2023/01/18 19:38:28;;;;;;;23.75;21.25;;;;;;;-1.10;100.00;99716.69;10194195;28;20054;-72
2023/01/18 19:43:28;;;;;;;26.80;21.33;;;;;;;-1.08;100.00;99719.13;10156325;28;20129;-72
2023/01/18 19:48:24;;;;;;;23.80;21.15;;;;;;;-1.11;100.00;99719.66;10193559;28;20470;-72
2023/01/18 19:53:21;;;;;;;24.95;19.38;;;;;;;-1.13;100.00;99706.50;10156366;28;20073;-72
2023/01/18 19:58:17;;;;;;;23.88;19.90;;;;;;;-1.09;100.00;99712.97;10154903;28;20467;-71
2023/01/18 20:03:14;;;;;;;22.52;19.63;;;;;;;-0.99;100.00;99706.00;10131019;28;20066;-71
2023/01/18 20:08:11;;;;;;;21.70;18.52;;;;;;;-1.01;100.00;99719.69;10183572;28;20070;-71
2023/01/18 20:13:07;;;;;;;22.30;18.58;;;;;;;-1.04;100.00;99703.28;10115259;28;20078;-71
2023/01/18 20:18:04;;;;;;;25.70;18.75;;;;;;;-0.98;100.00;99702.25;10164865;28;20074;-71
2023/01/18 20:23:01;;;;;;;25.65;17.27;;;;;;;-1.00;100.00;99702.50;10113943;28;20428;-71
2023/01/18 20:27:58;;;;;;;23.02;17.10;;;;;;;-0.97;100.00;99699.31;10113110;28;20134;-71
2023/01/18 20:32:55;;;;;;;20.08;16.73;;;;;;;-0.92;100.00;99690.44;10113111;28;20054;-71
2023/01/18 20:37:53;;;;;;;24.00;17.58;;;;;;;-0.87;100.00;99703.88;10114483;28;20056;-71
2023/01/18 20:42:49;;;;;;;22.85;16.88;;;;;;;-0.81;100.00;99694.75;10113700;28;20055;-71
2023/01/18 20:47:46;;;;;;;21.48;17.85;;;;;;;-0.94;100.00;99692.59;10188876;28;20054;-72
2023/01/18 20:52:43;;;;;;;22.20;17.73;;;;;;;-0.92;100.00;99690.44;10156617;28;20545;-71
2023/01/18 20:57:40;;;;;;;25.02;17.48;;;;;;;-0.92;100.00;99695.81;10186800;28;20172;-71
2023/01/18 21:02:36;;;;;;;25.77;17.27;;;;;;;-0.92;100.00;99693.13;10147788;28;20051;-71
2023/01/18 21:07:33;;;;;;;21.80;16.73;;;;;;;-0.91;100.00;99702.78;10179079;28;20408;-71
2023/01/18 21:12:30;;;;;;;20.58;17.55;;;;;;;-0.94;100.00;99703.31;10152296;28;20684;-72
2023/01/18 21:17:26;;;;;;;23.60;17.58;;;;;;;-0.93;100.00;99710.28;10176451;28;20043;-72
2023/01/18 21:22:23;;;;;;;23.88;17.50;;;;;;;-0.95;100.00;99701.69;10120388;28;20142;-72
2023/01/18 21:27:19;;;;;;;20.20;17.23;;;;;;;-0.78;100.00;99713.00;10153178;28;20534;-71
2023/01/18 21:32:15;;;;;;;27.35;17.23;;;;;;;-0.61;100.00;99706.56;10130326;28;20490;-71
2023/01/18 21:37:12;;;;;;;18.13;15.80;;;;;;;-0.60;100.00;99703.63;10137287;28;20134;-71
2023/01/18 21:47:25;;;;;;;24.15;14.73;;;;;;;-0.50;100.00;99708.19;10135988;28;20047;-72
2023/01/18 21:57:37;;;;;;;20.00;15.55;;;;;;;-0.61;100.00;99701.19;10121968;28;20073;-71
2023/01/18 22:02:34;;;;;;;22.52;15.82;;;;;;;-0.56;100.00;99706.56;10119022;28;20628;-72
2023/01/18 22:07:32;;;;;;;20.95;14.70;;;;;;;-0.48;100.00;99708.72;10190185;28;20052;-71
2023/01/18 22:12:30;;;;;;;24.67;15.40;;;;;;;-0.41;100.00;99711.94;10196869;28;20068;-72
2023/01/18 22:17:26;;;;;;;21.20;14.45;;;;;;;-0.35;100.00;99705.47;10192466;28;20148;-72
2023/01/18 22:22:23;;;;;;;21.23;15.32;;;;;;;-0.22;100.00;99713.00;10173373;28;20082;-72
2023/01/18 22:27:19;;;;;;;18.60;13.95;;;;;;;-0.08;100.00;99709.75;10171689;28;20038;-71
2023/01/18 22:32:16;;;;;;;20.73;15.10;;;;;;;-0.02;100.00;99708.69;10145082;28;20050;-71
2023/01/18 22:37:12;;;;;;;19.35;14.93;;;;;;;0.05;100.00;99703.81;10160830;28;20145;-71
2023/01/18 22:42:09;;;;;;;19.77;13.57;;;;;;;0.15;100.00;99714.53;10123280;28;20043;-71
2023/01/18 22:47:06;;;;;;;19.40;12.80;;;;;;;0.25;100.00;99711.00;10143371;28;20676;-71
2023/01/18 22:52:03;;;;;;;22.65;14.25;;;;;;;0.31;100.00;99706.44;10117043;28;20089;-71
2023/01/18 22:56:59;;;;;;;16.42;11.90;;;;;;;0.31;100.00;99709.91;10153663;28;20078;-71
2023/01/18 23:01:57;;;;;;;24.27;15.10;;;;;;;0.31;100.00;99703.75;10116711;28;20505;-71
2023/01/18 23:06:56;;;;;;;22.20;16.73;;;;;;;0.03;100.00;99716.72;10128161;28;20065;-71
2023/01/18 23:11:53;;;;;;;22.80;17.83;;;;;;;-0.10;100.00;99717.28;10155809;28;20047;-72
2023/01/18 23:22:08;;;;;;;28.42;22.30;;;;;;;-0.36;100.00;99730.72;10155917;28;20495;-72
2023/01/18 23:27:06;;;;;;;25.30;22.00;;;;;;;-0.29;100.00;99728.56;10183962;28;20120;-71
2023/01/18 23:32:03;;;;;;;22.38;19.20;;;;;;;-0.24;100.00;99733.16;10169090;28;20628;-72